Terminal Aerodrome Forecast
Issued by NWS Cleveland, OH

Home | Current Version | Previous Version | Text Only | Print | Product List | Glossary On
Versions: 1 2 3 4 5 6 7 8 9 10 11 12 13 14 15
000
FTUS41 KCLE 132300
TAFTOL
TAF
KTOL 132331Z 1400/1424 28008KT P6SM FEW040
     FM140800 VRB03KT 4SM BR SCT120
     FM141300 23008KT P6SM BKN120
     FM141900 27010KT P6SM BKN070 PROB30 1420/1423 3SM TSRA
      OVC030CB=

USA.gov is the U.S. government's official web portal to all federal, state and local government web resources and services.